createdAt,value
2022-07-26T00:00:14.170Z,52.14
2022-07-26T00:02:47.358Z,52.30
2022-07-26T00:05:16.516Z,52.40
2022-07-26T00:07:43.677Z,52.62
2022-07-26T00:10:10.596Z,53.04
2022-07-26T00:12:37.581Z,53.12
2022-07-26T00:15:07.392Z,53.21
2022-07-26T00:17:34.143Z,53.26
2022-07-26T00:20:00.775Z,53.29
2022-07-26T00:22:36.533Z,53.13
2022-07-26T00:25:05.083Z,53.18
2022-07-26T00:27:32.904Z,53.68
2022-07-26T00:29:59.551Z,53.66
2022-07-26T00:32:26.344Z,53.96
2022-07-26T00:34:53.213Z,54.26
2022-07-26T00:37:20.878Z,53.81
2022-07-26T00:39:48.616Z,54.10
2022-07-26T00:42:15.484Z,54.33
2022-07-26T00:44:45.148Z,54.35
2022-07-26T00:47:12.877Z,54.30
2022-07-26T00:49:40.239Z,54.31
2022-07-26T00:52:09.146Z,54.33
2022-07-26T00:54:37.432Z,54.61
2022-07-26T00:57:04.841Z,54.53
2022-07-26T00:59:31.860Z,54.71
2022-07-26T01:01:58.773Z,54.53
2022-07-26T01:04:25.968Z,54.45
2022-07-26T01:06:53.413Z,54.21
2022-07-26T01:09:20.176Z,54.43
2022-07-26T01:11:46.921Z,54.74
2022-07-26T01:14:14.028Z,55.32
2022-07-26T01:16:41.005Z,55.31
2022-07-26T01:19:08.068Z,55.68
2022-07-26T01:21:35.083Z,55.84
2022-07-26T01:24:02.521Z,55.96
2022-07-26T01:26:29.278Z,55.99
2022-07-26T01:28:56.048Z,55.88
2022-07-26T01:31:23.631Z,56.26
2022-07-26T01:33:51.337Z,56.32
2022-07-26T01:36:18.055Z,56.52
2022-07-26T01:38:45.241Z,56.41
2022-07-26T01:41:12.066Z,56.58
2022-07-26T01:43:39.208Z,56.54
2022-07-26T01:46:09.362Z,56.61
2022-07-26T01:48:36.521Z,56.93
2022-07-26T01:51:03.448Z,56.54
2022-07-26T01:53:30.106Z,56.74
2022-07-26T01:55:56.921Z,57.06
2022-07-26T01:58:23.600Z,56.90
2022-07-26T02:00:50.323Z,56.91
2022-07-26T02:03:17.071Z,57.19
2022-07-26T02:05:43.851Z,57.45
2022-07-26T02:08:11.149Z,57.42
2022-07-26T02:10:56.825Z,57.75
2022-07-26T02:13:23.658Z,57.80
2022-07-26T02:15:50.525Z,58.11
2022-07-26T02:18:17.363Z,58.39
2022-07-26T02:20:44.314Z,58.81
2022-07-26T02:23:11.090Z,58.89
2022-07-26T02:25:37.848Z,59.20
2022-07-26T02:28:04.898Z,59.23
2022-07-26T02:30:31.628Z,59.43
2022-07-26T02:32:58.316Z,59.55
2022-07-26T02:35:25.114Z,59.61
2022-07-26T02:37:51.854Z,59.58
2022-07-26T02:40:19.515Z,59.72
2022-07-26T02:42:46.692Z,59.75
2022-07-26T02:45:13.439Z,59.45
2022-07-26T02:47:51.506Z,59.65
2022-07-26T02:50:19.738Z,59.52
2022-07-26T02:52:48.247Z,60.58
2022-07-26T02:55:21.687Z,61.04
2022-07-26T02:57:49.394Z,62.65
2022-07-26T03:00:21.402Z,64.08
2022-07-26T03:02:49.432Z,66.56
2022-07-26T03:05:16.546Z,66.70
2022-07-26T03:07:43.221Z,67.44
2022-07-26T03:10:10.087Z,67.68
2022-07-26T03:12:36.913Z,67.94
2022-07-26T03:15:03.993Z,68.74
2022-07-26T03:17:30.718Z,68.78
2022-07-26T03:19:59.236Z,68.85
2022-07-26T03:22:25.902Z,68.65
2022-07-26T03:24:52.615Z,68.49
2022-07-26T03:27:19.325Z,68.58
2022-07-26T03:29:46.024Z,68.38
2022-07-26T03:32:12.721Z,68.09
2022-07-26T03:34:39.393Z,68.03
2022-07-26T03:37:06.125Z,67.38
2022-07-26T03:39:32.888Z,67.92
2022-07-26T03:41:59.645Z,67.08
2022-07-26T03:44:26.271Z,67.08
2022-07-26T03:46:52.982Z,67.06
2022-07-26T03:49:19.716Z,66.91
2022-07-26T03:51:46.710Z,66.47
2022-07-26T03:54:13.429Z,66.58
2022-07-26T03:56:40.768Z,66.15
2022-07-26T03:59:09.834Z,66.15
2022-07-26T04:01:42.081Z,65.77
2022-07-26T04:04:10.575Z,65.78
2022-07-26T04:06:39.342Z,65.90
2022-07-26T04:09:07.324Z,65.76
2022-07-26T04:11:35.211Z,65.62
2022-07-26T04:14:02.254Z,65.79
2022-07-26T04:16:29.372Z,65.97
2022-07-26T04:18:56.455Z,65.94
2022-07-26T04:21:23.268Z,65.98
2022-07-26T04:23:51.478Z,66.19
2022-07-26T04:26:21.159Z,66.20
2022-07-26T04:28:48.095Z,66.37
2022-07-26T04:31:15.094Z,66.50
2022-07-26T04:33:41.813Z,67.04
2022-07-26T04:36:08.946Z,67.51
2022-07-26T04:38:35.595Z,67.91
2022-07-26T04:41:02.337Z,67.41
2022-07-26T04:43:29.026Z,67.86
2022-07-26T04:45:57.566Z,67.46
2022-07-26T04:48:24.808Z,67.44
2022-07-26T04:50:51.975Z,67.52
2022-07-26T04:53:18.883Z,68.13
2022-07-26T04:55:45.988Z,67.69
2022-07-26T04:58:12.788Z,67.72
2022-07-26T05:03:26.628Z,67.60
2022-07-26T05:05:53.791Z,67.72
2022-07-26T05:08:20.548Z,67.78
2022-07-26T05:10:51.617Z,67.86
2022-07-26T05:13:23.141Z,68.37
2022-07-26T05:15:57.012Z,68.42
2022-07-26T05:18:23.662Z,68.68
2022-07-26T05:20:51.541Z,68.77
2022-07-26T05:23:19.944Z,68.70
2022-07-26T05:25:46.909Z,68.77
2022-07-26T05:28:13.593Z,68.32
2022-07-26T05:30:40.268Z,68.94
2022-07-26T05:33:06.931Z,69.00
2022-07-26T05:35:33.617Z,69.10
2022-07-26T05:38:00.296Z,68.73
2022-07-26T05:40:27.086Z,68.60
2022-07-26T05:42:53.810Z,69.24
2022-07-26T05:45:20.494Z,69.72
2022-07-26T05:47:52.922Z,70.55
2022-07-26T05:50:20.043Z,70.94
2022-07-26T05:52:46.785Z,71.48
2022-07-26T05:55:13.919Z,71.97
2022-07-26T05:57:42.062Z,71.67
2022-07-26T06:00:12.185Z,71.22
2022-07-26T06:02:39.129Z,70.75
2022-07-26T06:05:06.635Z,70.67
2022-07-26T06:07:33.913Z,69.80
2022-07-26T06:10:00.587Z,69.06
2022-07-26T06:12:27.363Z,67.10
2022-07-26T06:14:53.999Z,65.16
2022-07-26T06:17:20.861Z,64.62
2022-07-26T06:19:47.967Z,64.39
2022-07-26T06:22:15.510Z,63.31
2022-07-26T06:24:42.144Z,63.13
2022-07-26T06:27:08.848Z,62.83
2022-07-26T06:29:35.560Z,61.54
2022-07-26T06:32:02.368Z,60.98
2022-07-26T06:34:29.247Z,60.29
2022-07-26T06:36:56.027Z,59.70
2022-07-26T06:39:22.667Z,59.73
2022-07-26T06:41:49.354Z,60.12
2022-07-26T06:44:22.659Z,59.86
2022-07-26T06:46:49.889Z,59.38
2022-07-26T06:49:20.587Z,58.77
2022-07-26T06:51:49.029Z,58.63
2022-07-26T06:54:15.774Z,58.78
2022-07-26T06:56:42.459Z,58.92
2022-07-26T06:59:09.608Z,60.07
2022-07-26T07:01:58.433Z,60.62
2022-07-26T07:04:23.270Z,61.18
2022-07-26T07:06:50.058Z,61.94
2022-07-26T07:09:17.377Z,62.01
2022-07-26T07:11:46.003Z,60.46
2022-07-26T07:14:15.529Z,59.58
2022-07-26T07:16:42.286Z,58.82
2022-07-26T07:19:09.024Z,58.54
2022-07-26T07:21:35.776Z,58.96
2022-07-26T07:24:02.435Z,59.56
2022-07-26T07:26:29.385Z,60.25
2022-07-26T07:28:56.342Z,60.26
2022-07-26T07:31:30.397Z,60.23
2022-07-26T07:33:57.743Z,60.54
2022-07-26T07:36:24.601Z,61.29
2022-07-26T07:38:51.903Z,61.64
2022-07-26T07:41:19.088Z,61.60
2022-07-26T07:43:46.028Z,62.01
2022-07-26T07:46:13.351Z,62.07
2022-07-26T07:48:46.998Z,62.14
2022-07-26T07:51:14.333Z,60.42
2022-07-26T07:53:41.020Z,58.00
2022-07-26T07:56:08.013Z,55.78
2022-07-26T07:58:34.763Z,54.55
2022-07-26T08:01:01.687Z,53.88
2022-07-26T08:03:38.886Z,54.00
2022-07-26T08:06:07.460Z,55.15
2022-07-26T08:08:34.843Z,56.36
2022-07-26T08:11:01.747Z,57.17
2022-07-26T08:13:30.524Z,57.38
2022-07-26T08:15:59.397Z,58.49
2022-07-26T08:18:27.828Z,58.70
2022-07-26T08:20:55.477Z,58.98
2022-07-26T08:23:22.222Z,59.10
2022-07-26T08:25:58.579Z,59.76
2022-07-26T08:31:15.253Z,59.22
2022-07-26T08:33:46.082Z,58.67
2022-07-26T08:36:17.367Z,57.89
2022-07-26T08:38:44.791Z,57.58
2022-07-26T08:41:14.352Z,57.60
2022-07-26T08:43:50.646Z,57.66
2022-07-26T08:46:24.728Z,56.99
2022-07-26T08:48:52.479Z,56.08
2022-07-26T08:51:22.741Z,54.08
2022-07-26T08:53:52.070Z,51.87
2022-07-26T08:56:18.724Z,50.51
2022-07-26T08:58:45.687Z,49.63
2022-07-26T09:01:13.082Z,49.46
2022-07-26T09:03:41.665Z,49.69
2022-07-26T09:06:13.211Z,49.84
2022-07-26T09:08:40.080Z,50.78
2022-07-26T09:11:25.189Z,52.16
2022-07-26T09:13:56.695Z,50.74
2022-07-26T09:16:23.657Z,47.85
2022-07-26T09:18:50.499Z,46.42
2022-07-26T09:21:30.210Z,45.13
2022-07-26T09:23:58.425Z,43.65
2022-07-26T09:26:26.088Z,43.45
2022-07-26T09:29:11.033Z,42.08
2022-07-26T09:31:39.631Z,41.79
2022-07-26T09:34:09.974Z,41.99
2022-07-26T09:36:53.596Z,40.26
2022-07-26T09:39:22.759Z,39.36
2022-07-26T09:42:27.615Z,39.96
2022-07-26T09:44:57.116Z,38.75
2022-07-26T09:47:36.221Z,36.85
2022-07-26T09:50:30.832Z,38.08
2022-07-26T09:53:07.590Z,39.38
2022-07-26T09:55:44.615Z,39.82
2022-07-26T09:58:16.453Z,38.06
2022-07-26T10:00:44.188Z,37.34
2022-07-26T10:03:11.338Z,36.30
2022-07-26T10:05:38.393Z,35.06
2022-07-26T10:08:06.312Z,34.56
2022-07-26T10:10:39.269Z,33.98
2022-07-26T10:13:07.600Z,32.33
2022-07-26T10:15:40.438Z,32.80
2022-07-26T10:18:10.223Z,33.00
2022-07-26T10:20:46.811Z,31.93
2022-07-26T10:23:32.295Z,31.20
2022-07-26T10:26:00.684Z,31.58
2022-07-26T10:28:30.446Z,31.70
2022-07-26T10:31:30.410Z,30.66
2022-07-26T10:33:59.251Z,31.09
2022-07-26T10:36:37.988Z,31.22
2022-07-26T10:39:15.608Z,32.11
2022-07-26T10:41:47.325Z,32.77
2022-07-26T10:44:29.053Z,34.07
2022-07-26T10:46:57.130Z,32.69
2022-07-26T10:49:29.988Z,33.10
2022-07-26T10:52:15.478Z,33.62
2022-07-26T10:54:57.531Z,34.31
2022-07-26T10:57:24.388Z,34.04
2022-07-26T10:59:56.231Z,35.08
2022-07-26T11:02:33.269Z,34.78
2022-07-26T11:05:05.423Z,33.55
2022-07-26T11:07:32.259Z,32.78
2022-07-26T11:10:00.453Z,32.23
2022-07-26T11:12:27.319Z,32.03
2022-07-26T11:14:54.443Z,31.81
2022-07-26T11:17:27.459Z,32.36
2022-07-26T11:19:54.515Z,31.06
2022-07-26T11:22:21.926Z,32.61
2022-07-26T11:24:48.672Z,33.07
2022-07-26T11:27:15.431Z,32.62
2022-07-26T11:29:42.077Z,32.72
2022-07-26T11:32:20.388Z,31.82
2022-07-26T11:34:59.430Z,29.74
2022-07-26T11:37:26.460Z,30.93
2022-07-26T11:39:53.252Z,30.63
2022-07-26T11:42:21.568Z,31.19
2022-07-26T11:44:49.475Z,31.57
2022-07-26T11:47:20.615Z,31.76
2022-07-26T11:50:00.592Z,31.86
2022-07-26T11:52:36.787Z,32.42
2022-07-26T11:55:03.757Z,32.29
2022-07-26T11:57:31.852Z,31.66
2022-07-26T12:00:00.606Z,30.72
2022-07-26T12:02:28.879Z,30.68
2022-07-26T12:05:22.652Z,31.07
2022-07-26T12:08:05.297Z,31.55
2022-07-26T12:10:32.172Z,32.18
2022-07-26T12:13:14.256Z,31.69
2022-07-26T12:15:52.860Z,30.84
2022-07-26T12:18:30.507Z,30.75
2022-07-26T12:21:07.185Z,30.54
2022-07-26T12:24:00.999Z,30.44
2022-07-26T12:26:30.828Z,30.42
2022-07-26T12:29:00.141Z,29.90
2022-07-26T12:31:32.309Z,30.82
2022-07-26T12:33:59.942Z,31.91
2022-07-26T12:36:29.626Z,32.69
2022-07-26T12:38:58.976Z,31.71
2022-07-26T12:41:37.497Z,30.73
2022-07-26T12:44:11.981Z,31.22
2022-07-26T12:46:39.450Z,32.29
2022-07-26T12:49:06.295Z,32.52
2022-07-26T12:51:33.856Z,31.98
2022-07-26T12:54:00.711Z,31.19
2022-07-26T12:56:27.480Z,31.45
2022-07-26T12:58:56.077Z,31.32
2022-07-26T13:01:22.964Z,31.70
2022-07-26T13:03:49.728Z,32.07
2022-07-26T13:06:16.539Z,31.32
2022-07-26T13:08:43.240Z,31.40
2022-07-26T13:11:10.328Z,30.87
2022-07-26T13:13:38.198Z,30.83
2022-07-26T13:16:11.212Z,31.34
2022-07-26T13:18:39.628Z,31.28
2022-07-26T13:21:06.571Z,30.91
2022-07-26T13:23:35.554Z,31.86
2022-07-26T13:26:03.471Z,31.92
2022-07-26T13:28:30.860Z,31.40
2022-07-26T13:30:57.677Z,31.24
2022-07-26T13:33:24.484Z,32.64
2022-07-26T13:35:51.232Z,32.87
2022-07-26T13:38:19.807Z,32.29
2022-07-26T13:40:46.665Z,31.92
2022-07-26T13:43:13.388Z,31.19
2022-07-26T13:45:40.171Z,31.05
2022-07-26T13:48:07.322Z,31.05
2022-07-26T13:50:34.020Z,30.50
2022-07-26T13:53:00.870Z,31.17
2022-07-26T13:55:27.556Z,31.04
2022-07-26T13:57:57.117Z,30.67
2022-07-26T14:00:29.497Z,30.72
2022-07-26T14:03:00.049Z,30.03
2022-07-26T14:05:28.129Z,30.69
2022-07-26T14:07:55.533Z,30.49
2022-07-26T14:10:22.904Z,29.65
2022-07-26T14:12:49.859Z,29.69
2022-07-26T14:15:22.239Z,29.95
2022-07-26T14:17:50.445Z,29.72
2022-07-26T14:20:17.519Z,29.85
2022-07-26T14:22:44.864Z,29.70
2022-07-26T14:25:11.651Z,29.60
2022-07-26T14:27:38.496Z,29.83
2022-07-26T14:30:05.706Z,30.10
2022-07-26T14:32:32.459Z,30.66
2022-07-26T14:34:59.161Z,30.48
2022-07-26T14:37:42.186Z,30.70
2022-07-26T14:40:14.201Z,31.62
2022-07-26T14:42:41.100Z,31.55
2022-07-26T14:45:09.724Z,30.24
2022-07-26T14:47:36.716Z,30.19
2022-07-26T14:50:06.883Z,29.79
2022-07-26T14:52:36.901Z,30.64
2022-07-26T14:55:04.165Z,31.21
2022-07-26T14:57:30.983Z,31.19
2022-07-26T14:59:59.375Z,31.10
2022-07-26T15:02:26.234Z,30.10
2022-07-26T15:04:53.006Z,30.11
2022-07-26T15:07:19.763Z,30.64
2022-07-26T15:09:46.557Z,30.89
2022-07-26T15:12:13.388Z,30.64
2022-07-26T15:14:41.150Z,31.01
2022-07-26T15:17:07.887Z,30.83
2022-07-26T15:19:35.292Z,30.62
2022-07-26T15:22:02.218Z,30.57
2022-07-26T15:24:29.103Z,30.22
2022-07-26T15:26:55.812Z,30.55
2022-07-26T15:29:22.522Z,30.68
2022-07-26T15:31:49.514Z,31.21
2022-07-26T15:34:16.717Z,31.28
2022-07-26T15:36:43.701Z,31.76
2022-07-26T15:39:18.560Z,31.29
2022-07-26T15:41:47.360Z,30.73
2022-07-26T15:44:16.930Z,30.93
2022-07-26T15:46:47.936Z,30.90
2022-07-26T15:49:16.639Z,30.94
2022-07-26T15:51:43.595Z,30.42
2022-07-26T15:54:13.042Z,30.71
2022-07-26T15:56:40.396Z,31.13
2022-07-26T15:59:07.343Z,31.42
2022-07-26T16:01:35.614Z,31.56
2022-07-26T16:04:03.563Z,31.69
2022-07-26T16:06:30.351Z,31.52
2022-07-26T16:09:15.899Z,31.48
2022-07-26T16:11:43.929Z,31.44
2022-07-26T16:14:10.676Z,31.05
2022-07-26T16:16:37.443Z,31.47
2022-07-26T16:19:04.125Z,31.79
2022-07-26T16:21:31.995Z,31.70
2022-07-26T16:24:01.832Z,31.75
2022-07-26T16:26:32.907Z,31.51
2022-07-26T16:29:00.561Z,31.67
2022-07-26T16:31:27.387Z,31.78
2022-07-26T16:33:54.143Z,32.13
2022-07-26T16:36:20.865Z,31.89
2022-07-26T16:38:47.602Z,32.02
2022-07-26T16:41:14.309Z,32.03
2022-07-26T16:43:41.541Z,32.42
2022-07-26T16:46:08.493Z,32.60
2022-07-26T16:48:35.295Z,33.03
2022-07-26T16:51:02.181Z,33.05
2022-07-26T16:53:28.989Z,33.05
2022-07-26T16:55:55.838Z,33.00
2022-07-26T16:58:22.893Z,33.38
2022-07-26T17:00:49.796Z,32.40
2022-07-26T17:03:16.836Z,32.41
2022-07-26T17:05:45.913Z,32.11
2022-07-26T17:08:12.776Z,32.64
2022-07-26T17:10:39.454Z,32.27
2022-07-26T17:13:06.320Z,32.33
2022-07-26T17:15:33.260Z,32.45
2022-07-26T17:17:59.988Z,32.17
2022-07-26T17:20:27.275Z,32.57
2022-07-26T17:22:54.087Z,32.63
2022-07-26T17:25:20.755Z,32.98
2022-07-26T17:27:47.605Z,33.36
2022-07-26T17:30:14.632Z,33.25
2022-07-26T17:32:41.898Z,33.66
2022-07-26T17:35:09.496Z,33.99
2022-07-26T17:37:36.378Z,33.54
2022-07-26T17:40:07.822Z,33.71
2022-07-26T17:42:35.188Z,33.23
2022-07-26T17:45:02.150Z,33.60
2022-07-26T17:47:30.518Z,33.48
2022-07-26T17:50:33.947Z,33.58
2022-07-26T17:52:50.430Z,33.49
2022-07-26T17:55:19.140Z,33.96
2022-07-26T17:57:48.239Z,33.83
2022-07-26T18:00:16.981Z,34.28
2022-07-26T18:02:43.698Z,34.23
2022-07-26T18:05:11.273Z,35.01
2022-07-26T18:07:38.922Z,35.25
2022-07-26T18:10:06.764Z,35.42
2022-07-26T18:12:33.539Z,35.48
2022-07-26T18:15:00.227Z,35.95
2022-07-26T18:17:26.936Z,36.46
2022-07-26T18:19:53.591Z,36.67
2022-07-26T18:22:20.387Z,37.14
2022-07-26T18:24:47.063Z,37.48
2022-07-26T18:27:13.712Z,37.68
2022-07-26T18:29:40.376Z,38.06
2022-07-26T18:32:07.203Z,38.23
2022-07-26T18:34:33.884Z,38.18
2022-07-26T18:37:00.626Z,38.98
2022-07-26T18:39:32.946Z,39.11
2022-07-26T18:42:01.199Z,39.80
2022-07-26T18:44:27.872Z,39.86
2022-07-26T18:46:56.385Z,39.92
2022-07-26T18:49:30.733Z,40.55
2022-07-26T18:52:04.224Z,40.84
2022-07-26T18:54:35.383Z,41.28
2022-07-26T18:57:02.114Z,41.89
2022-07-26T18:59:29.764Z,42.13
2022-07-26T19:01:58.840Z,41.97
2022-07-26T19:04:26.111Z,42.36
2022-07-26T19:06:52.895Z,42.44
2022-07-26T19:09:19.866Z,43.02
2022-07-26T19:11:46.546Z,43.04
2022-07-26T19:14:13.831Z,43.24
2022-07-26T19:16:40.580Z,43.53
2022-07-26T19:19:07.309Z,43.83
2022-07-26T19:21:33.998Z,44.20
2022-07-26T19:24:00.673Z,44.38
2022-07-26T19:26:27.662Z,44.33
2022-07-26T19:28:54.540Z,43.92
2022-07-26T19:31:21.992Z,44.13
2022-07-26T19:33:48.770Z,43.62
2022-07-26T19:36:18.236Z,44.06
2022-07-26T19:38:52.377Z,44.27
2022-07-26T19:41:20.060Z,44.16
2022-07-26T19:43:46.886Z,44.13
2022-07-26T19:46:13.704Z,44.73
2022-07-26T19:48:40.464Z,44.65
2022-07-26T19:51:07.158Z,44.77
2022-07-26T19:53:33.950Z,44.90
2022-07-26T19:56:00.664Z,44.71
2022-07-26T19:58:29.276Z,44.26
2022-07-26T20:00:56.348Z,44.24
2022-07-26T20:03:23.167Z,44.14
2022-07-26T20:05:50.256Z,44.14
2022-07-26T20:08:16.929Z,44.42
2022-07-26T20:10:43.644Z,44.51
2022-07-26T20:13:10.444Z,44.07
2022-07-26T20:15:37.113Z,44.10
2022-07-26T20:18:04.746Z,44.32
2022-07-26T20:20:31.657Z,44.64
2022-07-26T20:22:58.618Z,44.75
2022-07-26T20:25:25.335Z,44.83
2022-07-26T20:27:52.923Z,45.15
2022-07-26T20:30:19.754Z,44.87
2022-07-26T20:32:46.455Z,44.97
2022-07-26T20:35:13.134Z,45.03
2022-07-26T20:37:41.129Z,45.31
2022-07-26T20:40:09.143Z,45.25
2022-07-26T20:42:38.384Z,45.45
2022-07-26T20:45:11.269Z,45.26
2022-07-26T20:47:43.135Z,45.77
2022-07-26T20:50:13.323Z,45.32
2022-07-26T20:52:40.075Z,45.34
2022-07-26T20:55:08.105Z,45.56
2022-07-26T20:57:35.532Z,45.81
2022-07-26T21:00:05.514Z,45.76
2022-07-26T21:02:32.565Z,45.90
2022-07-26T21:04:59.935Z,46.39
2022-07-26T21:07:55.609Z,46.28
2022-07-26T21:10:14.064Z,46.56
2022-07-26T21:12:41.148Z,46.76
2022-07-26T21:15:08.266Z,46.44
2022-07-26T21:17:36.384Z,46.66
2022-07-26T21:20:05.424Z,46.84
2022-07-26T21:22:33.055Z,47.00
2022-07-26T21:25:00.457Z,47.43
2022-07-26T21:27:27.528Z,47.88
2022-07-26T21:29:54.647Z,47.81
2022-07-26T21:32:24.544Z,47.85
2022-07-26T21:34:52.934Z,47.59
2022-07-26T21:37:19.948Z,47.72
2022-07-26T21:39:47.014Z,47.77
2022-07-26T21:42:14.688Z,47.97
2022-07-26T21:44:41.717Z,47.78
2022-07-26T21:47:08.363Z,47.99
2022-07-26T21:49:35.059Z,48.18
2022-07-26T21:52:02.224Z,48.36
2022-07-26T21:54:30.089Z,48.55
2022-07-26T21:56:56.772Z,48.72
2022-07-26T21:59:23.652Z,48.72
2022-07-26T22:01:50.516Z,48.94
2022-07-26T22:04:18.196Z,49.49
2022-07-26T22:06:45.603Z,49.42
2022-07-26T22:09:12.998Z,49.37
2022-07-26T22:11:40.367Z,49.73
2022-07-26T22:14:08.565Z,49.58
2022-07-26T22:16:36.578Z,49.92
2022-07-26T22:19:03.498Z,49.95
2022-07-26T22:21:30.178Z,49.67
2022-07-26T22:23:56.917Z,49.89
2022-07-26T22:26:26.993Z,49.73
2022-07-26T22:28:53.743Z,49.83
2022-07-26T22:31:20.444Z,50.36
2022-07-26T22:33:47.208Z,50.49
2022-07-26T22:36:14.204Z,50.60
2022-07-26T22:38:41.127Z,50.76
2022-07-26T22:41:07.802Z,50.65
2022-07-26T22:43:34.449Z,50.74
2022-07-26T22:46:01.138Z,51.01
2022-07-26T22:48:27.880Z,51.42
2022-07-26T22:50:54.697Z,51.04
2022-07-26T22:53:21.627Z,51.47
2022-07-26T22:55:48.290Z,51.51
2022-07-26T22:58:14.954Z,51.63
2022-07-26T23:00:41.751Z,51.51
2022-07-26T23:03:15.248Z,51.30
2022-07-26T23:05:47.682Z,51.35
2022-07-26T23:08:45.296Z,51.45
2022-07-26T23:11:02.315Z,51.41
2022-07-26T23:13:29.018Z,51.64
2022-07-26T23:16:00.283Z,51.83
2022-07-26T23:18:27.812Z,52.00
2022-07-26T23:20:54.460Z,52.65
2022-07-26T23:23:21.377Z,53.03
2022-07-26T23:25:48.082Z,53.15
2022-07-26T23:28:35.233Z,52.94
2022-07-26T23:31:11.802Z,53.41
2022-07-26T23:33:52.851Z,53.74
2022-07-26T23:36:29.070Z,54.03
2022-07-26T23:38:57.602Z,54.36
2022-07-26T23:41:24.978Z,54.76
2022-07-26T23:43:52.996Z,54.76
2022-07-26T23:46:20.252Z,54.85
2022-07-26T23:48:47.414Z,54.39
2022-07-26T23:51:14.251Z,54.63
2022-07-26T23:53:40.943Z,54.65
2022-07-26T23:56:07.644Z,54.35
2022-07-26T23:58:34.325Z,54.23
